sensor_id;sensor_type;location;lat;lon;timestamp;P1;durP1;ratioP1;P2;durP2;ratioP2
3865;SDS011;1948;53.250;10.412;2022-07-29T00:01:16;9.43;;;2.20;;
3865;SDS011;1948;53.250;10.412;2022-07-29T00:03:46;6.73;;;2.17;;
3865;SDS011;1948;53.250;10.412;2022-07-29T00:06:15;13.03;;;2.00;;
3865;SDS011;1948;53.250;10.412;2022-07-29T00:08:42;8.33;;;2.23;;
3865;SDS011;1948;53.250;10.412;2022-07-29T00:11:09;8.30;;;2.80;;
3865;SDS011;1948;53.250;10.412;2022-07-29T00:13:39;4.50;;;2.47;;
3865;SDS011;1948;53.250;10.412;2022-07-29T00:16:08;3.70;;;2.07;;
3865;SDS011;1948;53.250;10.412;2022-07-29T00:18:35;19.40;;;2.20;;
3865;SDS011;1948;53.250;10.412;2022-07-29T00:21:02;5.27;;;2.27;;
3865;SDS011;1948;53.250;10.412;2022-07-29T00:23:29;10.80;;;3.00;;
3865;SDS011;1948;53.250;10.412;2022-07-29T00:26:01;7.93;;;2.27;;
3865;SDS011;1948;53.250;10.412;2022-07-29T00:28:28;8.77;;;2.20;;
3865;SDS011;1948;53.250;10.412;2022-07-29T00:30:55;3.97;;;2.30;;
3865;SDS011;1948;53.250;10.412;2022-07-29T00:33:22;5.00;;;2.00;;
3865;SDS011;1948;53.250;10.412;2022-07-29T00:35:49;5.50;;;2.10;;
3865;SDS011;1948;53.250;10.412;2022-07-29T00:38:18;4.53;;;2.00;;
3865;SDS011;1948;53.250;10.412;2022-07-29T00:40:46;2.17;;;2.00;;
3865;SDS011;1948;53.250;10.412;2022-07-29T00:43:14;6.13;;;1.80;;
3865;SDS011;1948;53.250;10.412;2022-07-29T00:45:41;20.77;;;3.13;;
3865;SDS011;1948;53.250;10.412;2022-07-29T00:48:08;12.03;;;2.77;;
3865;SDS011;1948;53.250;10.412;2022-07-29T00:50:35;2.57;;;2.43;;
3865;SDS011;1948;53.250;10.412;2022-07-29T00:53:03;10.40;;;2.57;;
3865;SDS011;1948;53.250;10.412;2022-07-29T00:55:32;5.30;;;2.47;;
3865;SDS011;1948;53.250;10.412;2022-07-29T00:58:02;4.73;;;2.07;;
3865;SDS011;1948;53.250;10.412;2022-07-29T01:00:30;5.13;;;2.40;;
3865;SDS011;1948;53.250;10.412;2022-07-29T01:03:03;2.90;;;2.17;;
3865;SDS011;1948;53.250;10.412;2022-07-29T01:05:30;3.13;;;2.47;;
3865;SDS011;1948;53.250;10.412;2022-07-29T01:08:16;5.57;;;2.70;;
3865;SDS011;1948;53.250;10.412;2022-07-29T01:10:45;2.83;;;2.43;;
3865;SDS011;1948;53.250;10.412;2022-07-29T01:13:14;12.77;;;2.20;;
3865;SDS011;1948;53.250;10.412;2022-07-29T01:15:54;16.20;;;2.10;;
3865;SDS011;1948;53.250;10.412;2022-07-29T01:18:30;8.07;;;2.53;;
3865;SDS011;1948;53.250;10.412;2022-07-29T01:21:18;2.47;;;2.37;;
3865;SDS011;1948;53.250;10.412;2022-07-29T01:30:13;4.90;;;2.50;;
3865;SDS011;1948;53.250;10.412;2022-07-29T01:32:41;2.13;;;2.03;;
3865;SDS011;1948;53.250;10.412;2022-07-29T01:35:19;4.27;;;2.77;;
3865;SDS011;1948;53.250;10.412;2022-07-29T01:37:56;11.00;;;2.63;;
3865;SDS011;1948;53.250;10.412;2022-07-29T01:40:46;10.37;;;3.03;;
3865;SDS011;1948;53.250;10.412;2022-07-29T01:43:21;8.87;;;3.50;;
3865;SDS011;1948;53.250;10.412;2022-07-29T01:45:58;13.47;;;3.33;;
3865;SDS011;1948;53.250;10.412;2022-07-29T01:48:37;5.20;;;2.67;;
3865;SDS011;1948;53.250;10.412;2022-07-29T01:51:31;4.23;;;3.20;;
3865;SDS011;1948;53.250;10.412;2022-07-29T01:56:42;2.93;;;2.70;;
3865;SDS011;1948;53.250;10.412;2022-07-29T01:59:11;4.87;;;2.93;;
3865;SDS011;1948;53.250;10.412;2022-07-29T02:01:39;13.93;;;3.07;;
3865;SDS011;1948;53.250;10.412;2022-07-29T02:04:09;4.33;;;2.30;;
3865;SDS011;1948;53.250;10.412;2022-07-29T02:06:56;2.83;;;2.63;;
3865;SDS011;1948;53.250;10.412;2022-07-29T02:09:27;4.40;;;2.70;;
3865;SDS011;1948;53.250;10.412;2022-07-29T02:11:55;7.87;;;3.10;;
3865;SDS011;1948;53.250;10.412;2022-07-29T02:14:25;9.53;;;3.03;;
3865;SDS011;1948;53.250;10.412;2022-07-29T02:16:59;7.60;;;2.70;;
3865;SDS011;1948;53.250;10.412;2022-07-29T02:19:30;8.67;;;3.20;;
3865;SDS011;1948;53.250;10.412;2022-07-29T02:21:59;10.77;;;3.33;;
3865;SDS011;1948;53.250;10.412;2022-07-29T02:24:27;3.33;;;3.00;;
3865;SDS011;1948;53.250;10.412;2022-07-29T02:26:56;6.37;;;2.47;;
3865;SDS011;1948;53.250;10.412;2022-07-29T02:29:26;4.93;;;2.80;;
3865;SDS011;1948;53.250;10.412;2022-07-29T02:31:57;5.03;;;2.67;;
3865;SDS011;1948;53.250;10.412;2022-07-29T02:34:25;6.70;;;2.93;;
3865;SDS011;1948;53.250;10.412;2022-07-29T02:36:54;6.47;;;2.97;;
3865;SDS011;1948;53.250;10.412;2022-07-29T02:39:24;4.00;;;3.23;;
3865;SDS011;1948;53.250;10.412;2022-07-29T02:42:03;3.80;;;2.80;;
3865;SDS011;1948;53.250;10.412;2022-07-29T02:44:38;12.47;;;3.40;;
3865;SDS011;1948;53.250;10.412;2022-07-29T02:47:19;7.13;;;3.20;;
3865;SDS011;1948;53.250;10.412;2022-07-29T02:50:17;4.70;;;3.47;;
3865;SDS011;1948;53.250;10.412;2022-07-29T02:52:57;3.97;;;3.00;;
3865;SDS011;1948;53.250;10.412;2022-07-29T02:58:38;6.30;;;2.80;;
3865;SDS011;1948;53.250;10.412;2022-07-29T03:01:13;4.90;;;3.00;;
3865;SDS011;1948;53.250;10.412;2022-07-29T03:03:48;3.20;;;3.00;;
3865;SDS011;1948;53.250;10.412;2022-07-29T03:06:22;3.10;;;2.90;;
3865;SDS011;1948;53.250;10.412;2022-07-29T03:09:04;5.87;;;3.47;;
3865;SDS011;1948;53.250;10.412;2022-07-29T03:11:38;12.37;;;3.83;;
3865;SDS011;1948;53.250;10.412;2022-07-29T03:14:19;3.83;;;3.13;;
3865;SDS011;1948;53.250;10.412;2022-07-29T03:16:47;8.00;;;2.80;;
3865;SDS011;1948;53.250;10.412;2022-07-29T03:19:19;4.60;;;3.40;;
3865;SDS011;1948;53.250;10.412;2022-07-29T03:21:46;9.93;;;3.13;;
3865;SDS011;1948;53.250;10.412;2022-07-29T03:26:58;3.33;;;2.70;;
3865;SDS011;1948;53.250;10.412;2022-07-29T03:29:30;7.73;;;3.10;;
3865;SDS011;1948;53.250;10.412;2022-07-29T03:32:03;3.27;;;2.70;;
3865;SDS011;1948;53.250;10.412;2022-07-29T03:34:33;8.23;;;3.23;;
3865;SDS011;1948;53.250;10.412;2022-07-29T03:37:04;7.03;;;3.00;;
3865;SDS011;1948;53.250;10.412;2022-07-29T03:39:36;5.40;;;2.80;;
3865;SDS011;1948;53.250;10.412;2022-07-29T03:42:07;16.33;;;3.03;;
3865;SDS011;1948;53.250;10.412;2022-07-29T03:44:38;6.90;;;3.03;;
3865;SDS011;1948;53.250;10.412;2022-07-29T03:47:09;6.20;;;2.93;;
3865;SDS011;1948;53.250;10.412;2022-07-29T03:49:40;8.13;;;2.67;;
3865;SDS011;1948;53.250;10.412;2022-07-29T03:52:08;11.83;;;3.30;;
3865;SDS011;1948;53.250;10.412;2022-07-29T03:54:35;6.93;;;2.90;;
3865;SDS011;1948;53.250;10.412;2022-07-29T03:57:05;4.77;;;2.90;;
3865;SDS011;1948;53.250;10.412;2022-07-29T03:59:33;7.10;;;2.73;;
3865;SDS011;1948;53.250;10.412;2022-07-29T04:02:01;6.77;;;2.40;;
3865;SDS011;1948;53.250;10.412;2022-07-29T04:04:32;6.50;;;2.70;;
3865;SDS011;1948;53.250;10.412;2022-07-29T04:07:00;12.73;;;2.53;;
3865;SDS011;1948;53.250;10.412;2022-07-29T04:09:27;3.47;;;2.90;;
3865;SDS011;1948;53.250;10.412;2022-07-29T04:11:57;4.73;;;3.43;;
3865;SDS011;1948;53.250;10.412;2022-07-29T04:14:30;3.40;;;2.97;;
3865;SDS011;1948;53.250;10.412;2022-07-29T04:16:59;3.67;;;3.17;;
3865;SDS011;1948;53.250;10.412;2022-07-29T04:19:27;8.37;;;3.30;;
3865;SDS011;1948;53.250;10.412;2022-07-29T04:21:56;4.07;;;3.20;;
3865;SDS011;1948;53.250;10.412;2022-07-29T04:24:27;11.70;;;2.83;;
3865;SDS011;1948;53.250;10.412;2022-07-29T04:26:57;8.70;;;3.30;;
3865;SDS011;1948;53.250;10.412;2022-07-29T04:29:23;8.53;;;2.87;;
3865;SDS011;1948;53.250;10.412;2022-07-29T04:31:50;3.30;;;3.00;;
3865;SDS011;1948;53.250;10.412;2022-07-29T04:34:19;11.00;;;3.33;;
3865;SDS011;1948;53.250;10.412;2022-07-29T04:36:46;8.53;;;3.20;;
3865;SDS011;1948;53.250;10.412;2022-07-29T04:39:13;5.67;;;3.07;;
3865;SDS011;1948;53.250;10.412;2022-07-29T04:41:48;5.33;;;2.97;;
3865;SDS011;1948;53.250;10.412;2022-07-29T04:44:21;5.37;;;2.87;;
3865;SDS011;1948;53.250;10.412;2022-07-29T04:46:53;13.40;;;2.40;;
3865;SDS011;1948;53.250;10.412;2022-07-29T04:49:23;6.67;;;2.60;;
3865;SDS011;1948;53.250;10.412;2022-07-29T04:51:50;7.87;;;4.00;;
3865;SDS011;1948;53.250;10.412;2022-07-29T04:54:17;6.00;;;3.17;;
3865;SDS011;1948;53.250;10.412;2022-07-29T04:56:44;7.70;;;3.77;;
3865;SDS011;1948;53.250;10.412;2022-07-29T04:59:12;4.83;;;2.87;;
3865;SDS011;1948;53.250;10.412;2022-07-29T05:01:39;12.40;;;3.30;;
3865;SDS011;1948;53.250;10.412;2022-07-29T05:04:09;9.30;;;3.10;;
3865;SDS011;1948;53.250;10.412;2022-07-29T05:06:35;6.77;;;3.20;;
3865;SDS011;1948;53.250;10.412;2022-07-29T05:13:06;3.93;;;3.10;;
3865;SDS011;1948;53.250;10.412;2022-07-29T05:15:38;6.30;;;3.50;;
3865;SDS011;1948;53.250;10.412;2022-07-29T05:18:10;7.73;;;3.60;;
3865;SDS011;1948;53.250;10.412;2022-07-29T05:20:37;10.87;;;3.00;;
3865;SDS011;1948;53.250;10.412;2022-07-29T05:23:07;6.30;;;2.73;;
3865;SDS011;1948;53.250;10.412;2022-07-29T05:25:34;9.87;;;3.27;;
3865;SDS011;1948;53.250;10.412;2022-07-29T05:28:09;11.53;;;2.77;;
3865;SDS011;1948;53.250;10.412;2022-07-29T05:30:40;5.70;;;3.40;;
3865;SDS011;1948;53.250;10.412;2022-07-29T05:33:07;5.03;;;3.50;;
3865;SDS011;1948;53.250;10.412;2022-07-29T05:35:54;4.10;;;2.50;;
3865;SDS011;1948;53.250;10.412;2022-07-29T05:38:28;16.30;;;3.53;;
3865;SDS011;1948;53.250;10.412;2022-07-29T05:40:58;5.27;;;2.70;;
3865;SDS011;1948;53.250;10.412;2022-07-29T05:43:26;13.63;;;2.70;;
3865;SDS011;1948;53.250;10.412;2022-07-29T05:45:54;9.77;;;3.40;;
3865;SDS011;1948;53.250;10.412;2022-07-29T05:48:22;3.30;;;3.20;;
3865;SDS011;1948;53.250;10.412;2022-07-29T05:50:52;7.27;;;3.13;;
3865;SDS011;1948;53.250;10.412;2022-07-29T05:53:22;5.93;;;3.07;;
3865;SDS011;1948;53.250;10.412;2022-07-29T05:55:49;2.53;;;2.33;;
3865;SDS011;1948;53.250;10.412;2022-07-29T05:58:16;7.40;;;2.43;;
3865;SDS011;1948;53.250;10.412;2022-07-29T06:00:48;4.67;;;2.70;;
3865;SDS011;1948;53.250;10.412;2022-07-29T06:03:15;4.17;;;3.10;;
3865;SDS011;1948;53.250;10.412;2022-07-29T06:05:46;5.43;;;3.03;;
3865;SDS011;1948;53.250;10.412;2022-07-29T06:08:16;12.00;;;3.30;;
3865;SDS011;1948;53.250;10.412;2022-07-29T06:10:45;4.07;;;3.23;;
3865;SDS011;1948;53.250;10.412;2022-07-29T06:13:14;9.90;;;3.03;;
3865;SDS011;1948;53.250;10.412;2022-07-29T06:15:44;3.63;;;3.30;;
3865;SDS011;1948;53.250;10.412;2022-07-29T06:18:11;2.97;;;2.67;;
3865;SDS011;1948;53.250;10.412;2022-07-29T06:20:39;3.60;;;3.07;;
3865;SDS011;1948;53.250;10.412;2022-07-29T06:23:08;3.00;;;2.80;;
3865;SDS011;1948;53.250;10.412;2022-07-29T06:25:39;3.33;;;3.13;;
3865;SDS011;1948;53.250;10.412;2022-07-29T06:28:06;11.27;;;2.70;;
3865;SDS011;1948;53.250;10.412;2022-07-29T06:30:33;13.63;;;3.77;;
3865;SDS011;1948;53.250;10.412;2022-07-29T06:33:01;6.20;;;3.10;;
3865;SDS011;1948;53.250;10.412;2022-07-29T06:35:28;8.83;;;3.03;;
3865;SDS011;1948;53.250;10.412;2022-07-29T06:38:07;6.57;;;3.27;;
3865;SDS011;1948;53.250;10.412;2022-07-29T06:41:00;5.07;;;3.13;;
3865;SDS011;1948;53.250;10.412;2022-07-29T06:43:32;5.50;;;2.97;;
3865;SDS011;1948;53.250;10.412;2022-07-29T06:46:22;9.63;;;2.70;;
3865;SDS011;1948;53.250;10.412;2022-07-29T06:48:49;8.70;;;3.17;;
3865;SDS011;1948;53.250;10.412;2022-07-29T06:51:18;7.00;;;3.20;;
3865;SDS011;1948;53.250;10.412;2022-07-29T06:53:50;3.67;;;2.80;;
3865;SDS011;1948;53.250;10.412;2022-07-29T06:56:30;6.00;;;3.03;;
3865;SDS011;1948;53.250;10.412;2022-07-29T06:59:06;4.50;;;3.43;;
3865;SDS011;1948;53.250;10.412;2022-07-29T07:01:37;2.37;;;2.30;;
3865;SDS011;1948;53.250;10.412;2022-07-29T07:04:09;4.93;;;3.00;;
3865;SDS011;1948;53.250;10.412;2022-07-29T07:06:37;3.60;;;2.93;;
3865;SDS011;1948;53.250;10.412;2022-07-29T07:09:05;10.37;;;2.77;;
3865;SDS011;1948;53.250;10.412;2022-07-29T07:11:36;4.07;;;2.17;;
3865;SDS011;1948;53.250;10.412;2022-07-29T07:14:03;18.67;;;4.53;;
3865;SDS011;1948;53.250;10.412;2022-07-29T07:16:33;12.23;;;2.77;;
3865;SDS011;1948;53.250;10.412;2022-07-29T07:19:02;5.47;;;2.90;;
3865;SDS011;1948;53.250;10.412;2022-07-29T07:21:29;15.80;;;3.03;;
3865;SDS011;1948;53.250;10.412;2022-07-29T07:24:01;9.97;;;3.00;;
3865;SDS011;1948;53.250;10.412;2022-07-29T07:26:28;4.43;;;2.63;;
3865;SDS011;1948;53.250;10.412;2022-07-29T07:29:00;8.17;;;2.80;;
3865;SDS011;1948;53.250;10.412;2022-07-29T07:31:30;7.50;;;2.80;;
3865;SDS011;1948;53.250;10.412;2022-07-29T07:33:57;6.57;;;3.00;;
3865;SDS011;1948;53.250;10.412;2022-07-29T07:36:24;4.77;;;2.77;;
3865;SDS011;1948;53.250;10.412;2022-07-29T07:38:51;13.23;;;3.10;;
3865;SDS011;1948;53.250;10.412;2022-07-29T07:41:18;11.40;;;2.70;;
3865;SDS011;1948;53.250;10.412;2022-07-29T07:43:45;7.07;;;3.00;;
3865;SDS011;1948;53.250;10.412;2022-07-29T07:46:12;5.37;;;3.50;;
3865;SDS011;1948;53.250;10.412;2022-07-29T07:48:41;6.63;;;2.67;;
3865;SDS011;1948;53.250;10.412;2022-07-29T07:51:08;2.33;;;2.20;;
3865;SDS011;1948;53.250;10.412;2022-07-29T07:53:35;16.47;;;2.77;;
3865;SDS011;1948;53.250;10.412;2022-07-29T07:56:03;12.73;;;3.17;;
3865;SDS011;1948;53.250;10.412;2022-07-29T07:58:36;9.20;;;3.00;;
3865;SDS011;1948;53.250;10.412;2022-07-29T08:01:07;3.40;;;3.10;;
3865;SDS011;1948;53.250;10.412;2022-07-29T08:03:35;4.20;;;2.10;;
3865;SDS011;1948;53.250;10.412;2022-07-29T08:06:05;12.47;;;3.20;;
3865;SDS011;1948;53.250;10.412;2022-07-29T08:08:32;4.30;;;2.67;;
3865;SDS011;1948;53.250;10.412;2022-07-29T08:11:02;3.17;;;2.63;;
3865;SDS011;1948;53.250;10.412;2022-07-29T08:13:34;10.63;;;2.37;;
3865;SDS011;1948;53.250;10.412;2022-07-29T08:16:03;4.67;;;2.83;;
3865;SDS011;1948;53.250;10.412;2022-07-29T08:18:43;3.13;;;2.50;;
3865;SDS011;1948;53.250;10.412;2022-07-29T08:21:12;5.70;;;2.20;;
3865;SDS011;1948;53.250;10.412;2022-07-29T08:23:45;3.53;;;2.30;;
3865;SDS011;1948;53.250;10.412;2022-07-29T08:26:26;5.17;;;2.60;;
3865;SDS011;1948;53.250;10.412;2022-07-29T08:28:53;6.63;;;2.40;;
3865;SDS011;1948;53.250;10.412;2022-07-29T08:31:21;3.90;;;2.27;;
3865;SDS011;1948;53.250;10.412;2022-07-29T08:33:48;9.13;;;3.00;;
3865;SDS011;1948;53.250;10.412;2022-07-29T08:36:26;17.83;;;2.70;;
3865;SDS011;1948;53.250;10.412;2022-07-29T08:38:55;7.37;;;3.07;;
3865;SDS011;1948;53.250;10.412;2022-07-29T08:41:22;2.10;;;2.00;;
3865;SDS011;1948;53.250;10.412;2022-07-29T08:43:49;7.13;;;2.93;;
3865;SDS011;1948;53.250;10.412;2022-07-29T08:46:18;7.50;;;2.30;;
3865;SDS011;1948;53.250;10.412;2022-07-29T08:48:47;5.83;;;2.63;;
3865;SDS011;1948;53.250;10.412;2022-07-29T08:51:16;2.43;;;2.23;;
3865;SDS011;1948;53.250;10.412;2022-07-29T08:53:49;9.67;;;2.00;;
3865;SDS011;1948;53.250;10.412;2022-07-29T08:56:19;4.27;;;2.20;;
3865;SDS011;1948;53.250;10.412;2022-07-29T08:58:47;14.03;;;3.10;;
3865;SDS011;1948;53.250;10.412;2022-07-29T09:01:20;5.33;;;2.60;;
3865;SDS011;1948;53.250;10.412;2022-07-29T09:04:10;3.73;;;2.17;;
3865;SDS011;1948;53.250;10.412;2022-07-29T09:06:41;3.40;;;2.23;;
3865;SDS011;1948;53.250;10.412;2022-07-29T09:09:12;16.53;;;1.93;;
3865;SDS011;1948;53.250;10.412;2022-07-29T09:11:40;7.23;;;2.50;;
3865;SDS011;1948;53.250;10.412;2022-07-29T09:14:13;5.40;;;2.60;;
3865;SDS011;1948;53.250;10.412;2022-07-29T09:16:43;3.10;;;2.77;;
3865;SDS011;1948;53.250;10.412;2022-07-29T09:19:20;4.90;;;2.20;;
3865;SDS011;1948;53.250;10.412;2022-07-29T09:21:54;16.03;;;1.97;;
3865;SDS011;1948;53.250;10.412;2022-07-29T09:27:06;2.23;;;2.13;;
3865;SDS011;1948;53.250;10.412;2022-07-29T09:29:58;8.13;;;2.10;;
3865;SDS011;1948;53.250;10.412;2022-07-29T09:32:33;3.07;;;2.40;;
3865;SDS011;1948;53.250;10.412;2022-07-29T09:35:24;4.10;;;2.27;;
3865;SDS011;1948;53.250;10.412;2022-07-29T09:37:53;5.87;;;1.73;;
3865;SDS011;1948;53.250;10.412;2022-07-29T09:40:21;1.97;;;1.83;;
3865;SDS011;1948;53.250;10.412;2022-07-29T09:42:53;5.00;;;2.00;;
3865;SDS011;1948;53.250;10.412;2022-07-29T09:45:27;15.07;;;2.40;;
3865;SDS011;1948;53.250;10.412;2022-07-29T09:47:58;2.77;;;2.27;;
3865;SDS011;1948;53.250;10.412;2022-07-29T09:50:59;11.33;;;2.70;;
3865;SDS011;1948;53.250;10.412;2022-07-29T09:53:32;2.80;;;1.70;;
3865;SDS011;1948;53.250;10.412;2022-07-29T09:56:04;5.70;;;1.70;;
3865;SDS011;1948;53.250;10.412;2022-07-29T09:58:36;5.03;;;2.27;;
3865;SDS011;1948;53.250;10.412;2022-07-29T10:01:06;6.23;;;2.57;;
3865;SDS011;1948;53.250;10.412;2022-07-29T10:03:49;14.73;;;2.13;;
3865;SDS011;1948;53.250;10.412;2022-07-29T10:06:18;13.80;;;2.30;;
3865;SDS011;1948;53.250;10.412;2022-07-29T10:08:45;4.83;;;2.43;;
3865;SDS011;1948;53.250;10.412;2022-07-29T10:11:18;5.80;;;1.77;;
3865;SDS011;1948;53.250;10.412;2022-07-29T10:13:47;5.33;;;1.70;;
3865;SDS011;1948;53.250;10.412;2022-07-29T10:16:15;4.30;;;1.93;;
3865;SDS011;1948;53.250;10.412;2022-07-29T10:18:43;24.60;;;2.50;;
3865;SDS011;1948;53.250;10.412;2022-07-29T10:21:10;2.73;;;2.00;;
3865;SDS011;1948;53.250;10.412;2022-07-29T10:24:00;12.40;;;1.87;;
3865;SDS011;1948;53.250;10.412;2022-07-29T10:26:28;9.53;;;1.83;;
3865;SDS011;1948;53.250;10.412;2022-07-29T10:28:56;16.30;;;2.87;;
3865;SDS011;1948;53.250;10.412;2022-07-29T10:31:28;1.83;;;1.73;;
3865;SDS011;1948;53.250;10.412;2022-07-29T10:37:46;3.90;;;1.80;;
3865;SDS011;1948;53.250;10.412;2022-07-29T10:44:02;4.70;;;2.27;;
3865;SDS011;1948;53.250;10.412;2022-07-29T10:46:37;15.57;;;2.17;;
3865;SDS011;1948;53.250;10.412;2022-07-29T10:49:13;17.50;;;2.10;;
3865;SDS011;1948;53.250;10.412;2022-07-29T10:57:16;5.03;;;2.10;;
3865;SDS011;1948;53.250;10.412;2022-07-29T11:03:01;13.23;;;2.20;;
3865;SDS011;1948;53.250;10.412;2022-07-29T11:08:35;3.20;;;1.60;;
3865;SDS011;1948;53.250;10.412;2022-07-29T11:13:54;15.47;;;2.10;;
3865;SDS011;1948;53.250;10.412;2022-07-29T11:16:24;4.07;;;2.50;;
3865;SDS011;1948;53.250;10.412;2022-07-29T11:19:25;3.83;;;1.67;;
3865;SDS011;1948;53.250;10.412;2022-07-29T11:21:57;3.90;;;1.97;;
3865;SDS011;1948;53.250;10.412;2022-07-29T11:24:28;6.37;;;1.77;;
3865;SDS011;1948;53.250;10.412;2022-07-29T11:29:47;3.23;;;1.93;;
3865;SDS011;1948;53.250;10.412;2022-07-29T11:32:34;4.87;;;1.90;;
3865;SDS011;1948;53.250;10.412;2022-07-29T11:35:28;1.70;;;1.60;;
3865;SDS011;1948;53.250;10.412;2022-07-29T11:43:58;12.23;;;1.90;;
3865;SDS011;1948;53.250;10.412;2022-07-29T11:49:28;1.93;;;1.90;;
3865;SDS011;1948;53.250;10.412;2022-07-29T11:51:58;8.70;;;1.73;;
3865;SDS011;1948;53.250;10.412;2022-07-29T11:54:31;21.50;;;2.10;;
3865;SDS011;1948;53.250;10.412;2022-07-29T11:57:21;6.07;;;1.97;;
3865;SDS011;1948;53.250;10.412;2022-07-29T12:00:03;9.90;;;2.10;;
3865;SDS011;1948;53.250;10.412;2022-07-29T12:02:40;8.43;;;2.27;;
3865;SDS011;1948;53.250;10.412;2022-07-29T12:05:14;7.30;;;2.03;;
3865;SDS011;1948;53.250;10.412;2022-07-29T12:08:09;8.07;;;1.90;;
3865;SDS011;1948;53.250;10.412;2022-07-29T12:10:51;5.53;;;2.30;;
3865;SDS011;1948;53.250;10.412;2022-07-29T12:13:20;1.87;;;1.80;;
3865;SDS011;1948;53.250;10.412;2022-07-29T12:16:03;3.07;;;1.83;;
3865;SDS011;1948;53.250;10.412;2022-07-29T12:18:31;12.90;;;2.13;;
3865;SDS011;1948;53.250;10.412;2022-07-29T12:21:00;3.97;;;2.40;;
3865;SDS011;1948;53.250;10.412;2022-07-29T12:23:33;5.60;;;1.50;;
3865;SDS011;1948;53.250;10.412;2022-07-29T12:26:06;6.27;;;1.80;;
3865;SDS011;1948;53.250;10.412;2022-07-29T12:28:47;22.97;;;2.00;;
3865;SDS011;1948;53.250;10.412;2022-07-29T12:31:19;4.90;;;2.10;;
3865;SDS011;1948;53.250;10.412;2022-07-29T12:34:08;5.30;;;1.90;;
3865;SDS011;1948;53.250;10.412;2022-07-29T12:36:42;22.23;;;2.10;;
3865;SDS011;1948;53.250;10.412;2022-07-29T12:39:11;2.00;;;1.30;;
3865;SDS011;1948;53.250;10.412;2022-07-29T12:41:41;3.00;;;2.20;;
3865;SDS011;1948;53.250;10.412;2022-07-29T12:44:10;3.43;;;2.50;;
3865;SDS011;1948;53.250;10.412;2022-07-29T12:46:40;1.90;;;1.67;;
3865;SDS011;1948;53.250;10.412;2022-07-29T12:49:20;6.00;;;1.60;;
3865;SDS011;1948;53.250;10.412;2022-07-29T12:51:50;14.13;;;2.33;;
3865;SDS011;1948;53.250;10.412;2022-07-29T12:54:20;10.03;;;2.17;;
3865;SDS011;1948;53.250;10.412;2022-07-29T12:56:46;4.40;;;1.90;;
3865;SDS011;1948;53.250;10.412;2022-07-29T12:59:25;3.10;;;2.03;;
3865;SDS011;1948;53.250;10.412;2022-07-29T13:01:57;14.53;;;1.73;;
3865;SDS011;1948;53.250;10.412;2022-07-29T13:04:27;4.03;;;2.10;;
3865;SDS011;1948;53.250;10.412;2022-07-29T13:07:03;4.07;;;2.40;;
3865;SDS011;1948;53.250;10.412;2022-07-29T13:09:38;6.50;;;1.87;;
3865;SDS011;1948;53.250;10.412;2022-07-29T13:12:10;13.50;;;1.83;;
3865;SDS011;1948;53.250;10.412;2022-07-29T13:22:12;5.23;;;1.90;;
3865;SDS011;1948;53.250;10.412;2022-07-29T13:24:51;8.63;;;1.83;;
3865;SDS011;1948;53.250;10.412;2022-07-29T13:27:26;2.40;;;1.83;;
3865;SDS011;1948;53.250;10.412;2022-07-29T13:29:59;2.03;;;1.83;;
3865;SDS011;1948;53.250;10.412;2022-07-29T13:32:30;13.33;;;1.77;;
3865;SDS011;1948;53.250;10.412;2022-07-29T13:35:01;2.30;;;1.90;;
3865;SDS011;1948;53.250;10.412;2022-07-29T13:37:34;7.80;;;2.37;;
3865;SDS011;1948;53.250;10.412;2022-07-29T13:40:05;7.60;;;2.10;;
3865;SDS011;1948;53.250;10.412;2022-07-29T13:42:36;4.63;;;2.53;;
3865;SDS011;1948;53.250;10.412;2022-07-29T13:45:04;2.20;;;2.10;;
3865;SDS011;1948;53.250;10.412;2022-07-29T13:47:32;2.30;;;2.00;;
3865;SDS011;1948;53.250;10.412;2022-07-29T13:50:00;2.07;;;1.87;;
3865;SDS011;1948;53.250;10.412;2022-07-29T13:52:31;2.10;;;1.70;;
3865;SDS011;1948;53.250;10.412;2022-07-29T13:55:02;5.10;;;2.00;;
3865;SDS011;1948;53.250;10.412;2022-07-29T13:57:30;5.23;;;2.73;;
3865;SDS011;1948;53.250;10.412;2022-07-29T13:59:56;6.23;;;2.37;;
3865;SDS011;1948;53.250;10.412;2022-07-29T14:02:24;1.77;;;1.70;;
3865;SDS011;1948;53.250;10.412;2022-07-29T14:04:52;10.47;;;2.03;;
3865;SDS011;1948;53.250;10.412;2022-07-29T14:07:20;6.53;;;2.80;;
3865;SDS011;1948;53.250;10.412;2022-07-29T14:09:48;12.50;;;2.20;;
3865;SDS011;1948;53.250;10.412;2022-07-29T14:12:16;5.80;;;2.17;;
3865;SDS011;1948;53.250;10.412;2022-07-29T14:14:43;18.43;;;2.20;;
3865;SDS011;1948;53.250;10.412;2022-07-29T14:17:12;6.10;;;2.40;;
3865;SDS011;1948;53.250;10.412;2022-07-29T14:19:43;23.10;;;2.70;;
3865;SDS011;1948;53.250;10.412;2022-07-29T14:22:12;3.07;;;2.00;;
3865;SDS011;1948;53.250;10.412;2022-07-29T14:24:48;2.00;;;2.00;;
3865;SDS011;1948;53.250;10.412;2022-07-29T14:27:15;3.00;;;2.40;;
3865;SDS011;1948;53.250;10.412;2022-07-29T14:30:03;12.77;;;2.20;;
3865;SDS011;1948;53.250;10.412;2022-07-29T14:32:31;8.63;;;2.43;;
3865;SDS011;1948;53.250;10.412;2022-07-29T14:35:02;7.17;;;1.70;;
3865;SDS011;1948;53.250;10.412;2022-07-29T14:37:30;8.17;;;3.00;;
3865;SDS011;1948;53.250;10.412;2022-07-29T14:40:05;5.13;;;1.90;;
3865;SDS011;1948;53.250;10.412;2022-07-29T14:42:34;4.60;;;2.43;;
3865;SDS011;1948;53.250;10.412;2022-07-29T14:45:02;7.33;;;2.23;;
3865;SDS011;1948;53.250;10.412;2022-07-29T14:47:31;4.30;;;2.20;;
3865;SDS011;1948;53.250;10.412;2022-07-29T14:50:03;3.03;;;2.43;;
3865;SDS011;1948;53.250;10.412;2022-07-29T14:52:36;6.73;;;2.60;;
3865;SDS011;1948;53.250;10.412;2022-07-29T14:55:04;5.10;;;2.27;;
3865;SDS011;1948;53.250;10.412;2022-07-29T14:57:45;5.27;;;2.20;;
3865;SDS011;1948;53.250;10.412;2022-07-29T15:00:13;2.87;;;2.07;;
3865;SDS011;1948;53.250;10.412;2022-07-29T15:02:40;6.07;;;2.00;;
3865;SDS011;1948;53.250;10.412;2022-07-29T15:05:27;6.20;;;2.20;;
3865;SDS011;1948;53.250;10.412;2022-07-29T15:07:54;12.03;;;2.30;;
3865;SDS011;1948;53.250;10.412;2022-07-29T15:10:27;15.33;;;2.63;;
3865;SDS011;1948;53.250;10.412;2022-07-29T15:12:56;4.13;;;2.60;;
3865;SDS011;1948;53.250;10.412;2022-07-29T15:15:23;2.03;;;1.93;;
3865;SDS011;1948;53.250;10.412;2022-07-29T15:17:50;6.00;;;2.23;;
3865;SDS011;1948;53.250;10.412;2022-07-29T15:20:22;8.57;;;2.17;;
3865;SDS011;1948;53.250;10.412;2022-07-29T15:22:51;2.40;;;2.30;;
3865;SDS011;1948;53.250;10.412;2022-07-29T15:25:22;13.67;;;2.03;;
3865;SDS011;1948;53.250;10.412;2022-07-29T15:27:50;2.20;;;2.10;;
3865;SDS011;1948;53.250;10.412;2022-07-29T15:30:20;12.30;;;3.10;;
3865;SDS011;1948;53.250;10.412;2022-07-29T15:32:59;4.67;;;2.00;;
3865;SDS011;1948;53.250;10.412;2022-07-29T15:35:31;2.90;;;2.43;;
3865;SDS011;1948;53.250;10.412;2022-07-29T15:38:05;11.87;;;2.13;;
3865;SDS011;1948;53.250;10.412;2022-07-29T15:40:33;3.23;;;2.30;;
3865;SDS011;1948;53.250;10.412;2022-07-29T15:43:07;13.10;;;2.00;;
3865;SDS011;1948;53.250;10.412;2022-07-29T15:45:35;11.77;;;2.03;;
3865;SDS011;1948;53.250;10.412;2022-07-29T15:48:07;4.60;;;2.60;;
3865;SDS011;1948;53.250;10.412;2022-07-29T15:50:40;7.03;;;2.60;;
3865;SDS011;1948;53.250;10.412;2022-07-29T15:53:09;12.80;;;2.63;;
3865;SDS011;1948;53.250;10.412;2022-07-29T15:55:36;7.13;;;2.30;;
3865;SDS011;1948;53.250;10.412;2022-07-29T15:58:03;3.17;;;2.13;;
3865;SDS011;1948;53.250;10.412;2022-07-29T16:00:30;5.47;;;2.17;;
3865;SDS011;1948;53.250;10.412;2022-07-29T16:02:57;9.63;;;2.23;;
3865;SDS011;1948;53.250;10.412;2022-07-29T16:05:24;3.50;;;2.10;;
3865;SDS011;1948;53.250;10.412;2022-07-29T16:07:51;10.60;;;2.67;;
3865;SDS011;1948;53.250;10.412;2022-07-29T16:10:18;10.63;;;2.47;;
3865;SDS011;1948;53.250;10.412;2022-07-29T16:12:47;9.53;;;2.40;;
3865;SDS011;1948;53.250;10.412;2022-07-29T16:15:14;9.30;;;2.67;;
3865;SDS011;1948;53.250;10.412;2022-07-29T16:17:41;8.53;;;2.20;;
3865;SDS011;1948;53.250;10.412;2022-07-29T16:20:08;15.20;;;2.97;;
3865;SDS011;1948;53.250;10.412;2022-07-29T16:22:40;4.00;;;2.80;;
3865;SDS011;1948;53.250;10.412;2022-07-29T16:25:08;11.00;;;2.80;;
3865;SDS011;1948;53.250;10.412;2022-07-29T16:27:40;11.43;;;3.10;;